Freedom, Oklahoma
Current Conditions -  °F | °C
As of 5:15 AM on Saturday 20 Dec 2014 (Local Time) from KAVK Reporting Station
Haze Haze  
Wind Chill: 29°   Ceiling: 2100
Heat Index: 36°   Visibility: 5mi
Dew Point: 36°   Wind: 8mph
Humidity: 100%   Direction: 200°SSW
Pressure: 30.16"   Gusts: NA
Location:  36.77°N, 99.11°W
Report Text: KAVK 201115Z AUTO 20007KT 5SM BR OVC021 02/02 A3016 RMK AO2
Loading
Personal Weather Stations






























Interactive Weather Map New forecast layout! Learn more

10-Day Weather Forecast

Advertisements
Track Severe Weather on mobile